메인 페이지
METAR-TAF:

METAR-TAF

공항 :

Rosh Pinna, 이스라엘

위도: 32-58-48N, 경도: 035-34-12E, 고도: 281m

현재 날씨관측

예보는 1 시간 2분 전, 14:50시(UTC)에 발표되었습니다.
북서12kt풍과 북북서풍을 오가는
온도 27°C
습도 48%
기압 1010 hPa
시정 10km 이상
1500m 미만 상공 구름 및 적란운 없음

METAR: LLIB 191450Z AUTO 31012KT 280V340 CAVOK 27/15 Q1010

시각: 18:52 (15:52 UTC)

예보

예보는 4 시간 42분 전, 11:10시(UTC)에 발표되었습니다.
예보 대상 시간: 19일 12시부터 20일 12시까지 (UTC)
북서12kt
시정 10km 이상
고도 3500ft 상공 구름 조금
전환 중
19일 16시부터 19일 19시까지 (UTC)
여러 방향의 바람 4kt
시정: 8000m
고도 1800ft 상공 구름 보통
확률 30%
20일 00시부터 20일 05시까지 (UTC)
시정: 5000m
고도 1500ft 상공 구름 많음
박무
전환 중
20일 05시부터 20일 07시까지 (UTC)
남남동6kt
시정 10km 이상
고도 2500ft 상공 구름 조금

TAF: LLIB 191110Z 1912/2012 32012KT 9999 FEW035 BECMG 1916/1919 VRB04KT 8000 SCT018 PROB30 2000/2005 5000 BR BKN015 BECMG 2005/2007 16006KT 9999 FEW025 TX31/1912Z TN16/2003Z

4,000개 이상의 공항 관측 자료 및 예보 (METAR 및 TAF 보고).

지도상에서 검색 가능한 기상관측소가 노란 점과 빨간 점으로 표시되어 있습니다.

기상관측소 명을 보려면 표시 위로 마우스를 이동하세요.

날씨 관측과 예보를 보려면 클릭하세요.

지도 변경 : 확대하려면 엑스 표시가 있는 녹색 버튼, 축소하려면 빼기 표시가 있는 녹색 버튼, 다음 페이지의 지도를 보려면 녹색 화살표를 클릭하세요.


METAR-TAF: